sensor_id;sensor_type;location;lat;lon;timestamp;P1;durP1;ratioP1;P2;durP2;ratioP2
10319;SDS011;5205;52.168;5.420;2024-03-23T00:54:40;27.98;;;5.85;;
10319;SDS011;5205;52.168;5.420;2024-03-23T00:57:08;26.98;;;6.20;;
10319;SDS011;5205;52.168;5.420;2024-03-23T00:59:34;24.00;;;6.50;;
10319;SDS011;5205;52.168;5.420;2024-03-23T01:02:01;22.30;;;6.90;;
10319;SDS011;5205;52.168;5.420;2024-03-23T01:04:27;13.05;;;5.97;;
10319;SDS011;5205;52.168;5.420;2024-03-23T01:06:54;20.88;;;6.93;;
10319;SDS011;5205;52.168;5.420;2024-03-23T01:09:20;28.38;;;6.30;;
10319;SDS011;5205;52.168;5.420;2024-03-23T01:11:49;29.35;;;6.63;;
10319;SDS011;5205;52.168;5.420;2024-03-23T01:14:15;16.63;;;6.05;;
10319;SDS011;5205;52.168;5.420;2024-03-23T01:16:42;23.15;;;6.10;;
10319;SDS011;5205;52.168;5.420;2024-03-23T01:19:08;25.30;;;6.38;;
10319;SDS011;5205;52.168;5.420;2024-03-23T01:21:35;26.30;;;8.07;;
10319;SDS011;5205;52.168;5.420;2024-03-23T01:24:02;24.42;;;6.07;;
10319;SDS011;5205;52.168;5.420;2024-03-23T01:26:29;23.52;;;6.60;;
10319;SDS011;5205;52.168;5.420;2024-03-23T01:28:56;25.02;;;6.95;;
10319;SDS011;5205;52.168;5.420;2024-03-23T01:31:23;21.00;;;6.25;;
10319;SDS011;5205;52.168;5.420;2024-03-23T01:33:50;19.27;;;6.63;;
10319;SDS011;5205;52.168;5.420;2024-03-23T01:36:17;23.90;;;6.28;;
10319;SDS011;5205;52.168;5.420;2024-03-23T01:38:43;23.42;;;7.55;;
10319;SDS011;5205;52.168;5.420;2024-03-23T01:41:10;27.50;;;6.47;;
10319;SDS011;5205;52.168;5.420;2024-03-23T01:43:36;23.83;;;6.78;;
10319;SDS011;5205;52.168;5.420;2024-03-23T01:46:05;22.35;;;6.53;;
10319;SDS011;5205;52.168;5.420;2024-03-23T01:48:32;18.83;;;5.90;;
10319;SDS011;5205;52.168;5.420;2024-03-23T01:50:59;32.47;;;6.30;;
10319;SDS011;5205;52.168;5.420;2024-03-23T01:53:26;21.52;;;6.07;;
10319;SDS011;5205;52.168;5.420;2024-03-23T01:55:53;17.65;;;5.70;;
10319;SDS011;5205;52.168;5.420;2024-03-23T01:58:19;22.08;;;6.70;;
10319;SDS011;5205;52.168;5.420;2024-03-23T02:00:47;21.55;;;5.97;;
10319;SDS011;5205;52.168;5.420;2024-03-23T02:03:24;26.10;;;6.35;;
10319;SDS011;5205;52.168;5.420;2024-03-23T02:05:51;21.85;;;6.20;;
10319;SDS011;5205;52.168;5.420;2024-03-23T02:08:18;23.23;;;5.95;;
10319;SDS011;5205;52.168;5.420;2024-03-23T02:10:47;21.48;;;6.50;;
10319;SDS011;5205;52.168;5.420;2024-03-23T02:13:13;17.50;;;5.63;;
10319;SDS011;5205;52.168;5.420;2024-03-23T02:15:41;26.70;;;6.03;;
10319;SDS011;5205;52.168;5.420;2024-03-23T02:18:07;14.82;;;5.85;;
10319;SDS011;5205;52.168;5.420;2024-03-23T02:20:36;24.95;;;5.93;;
10319;SDS011;5205;52.168;5.420;2024-03-23T02:23:04;15.98;;;5.38;;
10319;SDS011;5205;52.168;5.420;2024-03-23T02:25:32;25.10;;;6.03;;
10319;SDS011;5205;52.168;5.420;2024-03-23T02:27:58;31.30;;;5.95;;
10319;SDS011;5205;52.168;5.420;2024-03-23T02:30:26;20.52;;;6.25;;
10319;SDS011;5205;52.168;5.420;2024-03-23T02:32:52;23.08;;;5.38;;
10319;SDS011;5205;52.168;5.420;2024-03-23T02:35:19;25.92;;;4.90;;
10319;SDS011;5205;52.168;5.420;2024-03-23T02:37:45;23.60;;;5.38;;
10319;SDS011;5205;52.168;5.420;2024-03-23T02:40:14;20.33;;;5.22;;
10319;SDS011;5205;52.168;5.420;2024-03-23T02:42:41;19.42;;;5.50;;
10319;SDS011;5205;52.168;5.420;2024-03-23T02:45:08;13.63;;;4.50;;
10319;SDS011;5205;52.168;5.420;2024-03-23T02:47:34;24.75;;;4.97;;
10319;SDS011;5205;52.168;5.420;2024-03-23T02:50:01;16.13;;;4.57;;
10319;SDS011;5205;52.168;5.420;2024-03-23T02:52:28;28.52;;;5.07;;
10319;SDS011;5205;52.168;5.420;2024-03-23T02:54:55;15.40;;;4.65;;
10319;SDS011;5205;52.168;5.420;2024-03-23T02:57:22;18.75;;;5.05;;
10319;SDS011;5205;52.168;5.420;2024-03-23T02:59:49;17.80;;;4.43;;
10319;SDS011;5205;52.168;5.420;2024-03-23T03:02:16;17.25;;;4.60;;
10319;SDS011;5205;52.168;5.420;2024-03-23T03:04:43;27.83;;;4.45;;
10319;SDS011;5205;52.168;5.420;2024-03-23T03:07:09;21.92;;;5.70;;
10319;SDS011;5205;52.168;5.420;2024-03-23T03:09:36;23.30;;;5.18;;
10319;SDS011;5205;52.168;5.420;2024-03-23T03:12:04;20.95;;;4.10;;
10319;SDS011;5205;52.168;5.420;2024-03-23T03:14:33;28.65;;;3.65;;
10319;SDS011;5205;52.168;5.420;2024-03-23T03:16:59;19.55;;;4.35;;
10319;SDS011;5205;52.168;5.420;2024-03-23T03:19:26;20.17;;;4.30;;
10319;SDS011;5205;52.168;5.420;2024-03-23T03:21:52;10.48;;;3.17;;
10319;SDS011;5205;52.168;5.420;2024-03-23T03:24:19;16.40;;;4.30;;
10319;SDS011;5205;52.168;5.420;2024-03-23T03:26:45;13.30;;;3.30;;
10319;SDS011;5205;52.168;5.420;2024-03-23T03:29:12;17.75;;;3.72;;
10319;SDS011;5205;52.168;5.420;2024-03-23T03:31:40;15.25;;;3.80;;
10319;SDS011;5205;52.168;5.420;2024-03-23T03:34:07;23.52;;;3.25;;
10319;SDS011;5205;52.168;5.420;2024-03-23T03:36:33;17.13;;;3.83;;
10319;SDS011;5205;52.168;5.420;2024-03-23T03:39:00;8.05;;;2.53;;
10319;SDS011;5205;52.168;5.420;2024-03-23T03:41:28;20.83;;;3.92;;
10319;SDS011;5205;52.168;5.420;2024-03-23T03:43:55;13.32;;;2.70;;
10319;SDS011;5205;52.168;5.420;2024-03-23T03:46:21;10.32;;;3.08;;
10319;SDS011;5205;52.168;5.420;2024-03-23T03:48:50;13.43;;;2.97;;
10319;SDS011;5205;52.168;5.420;2024-03-23T03:51:16;18.42;;;2.85;;
10319;SDS011;5205;52.168;5.420;2024-03-23T03:53:43;21.85;;;3.30;;
10319;SDS011;5205;52.168;5.420;2024-03-23T03:56:09;12.82;;;2.45;;
10319;SDS011;5205;52.168;5.420;2024-03-23T04:01:02;12.05;;;2.88;;
10319;SDS011;5205;52.168;5.420;2024-03-23T04:03:30;16.05;;;3.00;;
10319;SDS011;5205;52.168;5.420;2024-03-23T04:05:58;14.30;;;2.45;;
10319;SDS011;5205;52.168;5.420;2024-03-23T04:08:25;16.48;;;3.15;;
10319;SDS011;5205;52.168;5.420;2024-03-23T04:10:51;11.82;;;2.85;;
10319;SDS011;5205;52.168;5.420;2024-03-23T04:13:18;16.58;;;2.63;;
10319;SDS011;5205;52.168;5.420;2024-03-23T04:15:44;13.05;;;2.67;;
10319;SDS011;5205;52.168;5.420;2024-03-23T04:18:11;11.18;;;2.60;;
10319;SDS011;5205;52.168;5.420;2024-03-23T04:20:37;12.88;;;3.17;;
10319;SDS011;5205;52.168;5.420;2024-03-23T04:23:06;9.27;;;2.13;;
10319;SDS011;5205;52.168;5.420;2024-03-23T04:25:32;7.28;;;2.13;;
10319;SDS011;5205;52.168;5.420;2024-03-23T04:27:59;14.10;;;3.05;;
10319;SDS011;5205;52.168;5.420;2024-03-23T04:30:25;12.82;;;2.00;;
10319;SDS011;5205;52.168;5.420;2024-03-23T04:32:54;10.45;;;2.35;;
10319;SDS011;5205;52.168;5.420;2024-03-23T04:35:21;18.92;;;2.28;;
10319;SDS011;5205;52.168;5.420;2024-03-23T04:37:50;8.18;;;2.80;;
10319;SDS011;5205;52.168;5.420;2024-03-23T04:40:19;11.68;;;2.78;;
10319;SDS011;5205;52.168;5.420;2024-03-23T04:42:46;9.98;;;2.05;;
10319;SDS011;5205;52.168;5.420;2024-03-23T04:45:13;16.88;;;2.33;;
10319;SDS011;5205;52.168;5.420;2024-03-23T04:47:40;11.45;;;2.58;;
10319;SDS011;5205;52.168;5.420;2024-03-23T04:52:35;6.57;;;2.70;;
10319;SDS011;5205;52.168;5.420;2024-03-23T04:55:01;9.13;;;2.30;;
10319;SDS011;5205;52.168;5.420;2024-03-23T04:57:30;9.80;;;2.90;;
10319;SDS011;5205;52.168;5.420;2024-03-23T04:59:57;13.15;;;2.90;;
10319;SDS011;5205;52.168;5.420;2024-03-23T05:02:24;14.10;;;2.72;;
10319;SDS011;5205;52.168;5.420;2024-03-23T05:04:52;10.80;;;2.22;;
10319;SDS011;5205;52.168;5.420;2024-03-23T05:07:18;14.02;;;3.08;;
10319;SDS011;5205;52.168;5.420;2024-03-23T05:09:46;11.57;;;2.45;;
10319;SDS011;5205;52.168;5.420;2024-03-23T05:12:13;13.73;;;2.45;;
10319;SDS011;5205;52.168;5.420;2024-03-23T05:14:42;12.23;;;2.83;;
10319;SDS011;5205;52.168;5.420;2024-03-23T05:17:08;8.63;;;2.38;;
10319;SDS011;5205;52.168;5.420;2024-03-23T05:22:01;10.05;;;2.38;;
10319;SDS011;5205;52.168;5.420;2024-03-23T05:24:28;12.70;;;2.40;;
10319;SDS011;5205;52.168;5.420;2024-03-23T05:26:54;5.75;;;1.83;;
10319;SDS011;5205;52.168;5.420;2024-03-23T05:29:24;9.95;;;2.15;;
10319;SDS011;5205;52.168;5.420;2024-03-23T05:31:52;8.52;;;2.20;;
10319;SDS011;5205;52.168;5.420;2024-03-23T05:34:21;10.30;;;2.13;;
10319;SDS011;5205;52.168;5.420;2024-03-23T05:36:47;11.50;;;2.05;;
10319;SDS011;5205;52.168;5.420;2024-03-23T05:39:14;5.10;;;2.00;;
10319;SDS011;5205;52.168;5.420;2024-03-23T05:41:41;8.95;;;1.42;;
10319;SDS011;5205;52.168;5.420;2024-03-23T05:44:09;6.72;;;1.50;;
10319;SDS011;5205;52.168;5.420;2024-03-23T05:46:35;9.32;;;2.22;;
10319;SDS011;5205;52.168;5.420;2024-03-23T05:49:04;12.45;;;2.08;;
10319;SDS011;5205;52.168;5.420;2024-03-23T05:51:30;15.43;;;1.98;;
10319;SDS011;5205;52.168;5.420;2024-03-23T05:53:58;8.20;;;1.67;;
10319;SDS011;5205;52.168;5.420;2024-03-23T05:56:24;7.03;;;1.90;;
10319;SDS011;5205;52.168;5.420;2024-03-23T05:58:52;10.30;;;1.75;;
10319;SDS011;5205;52.168;5.420;2024-03-23T06:01:18;6.70;;;1.65;;
10319;SDS011;5205;52.168;5.420;2024-03-23T06:06:13;4.80;;;1.00;;
10319;SDS011;5205;52.168;5.420;2024-03-23T06:08:40;8.20;;;1.58;;
10319;SDS011;5205;52.168;5.420;2024-03-23T06:11:06;7.65;;;2.17;;
10319;SDS011;5205;52.168;5.420;2024-03-23T06:13:33;6.72;;;2.30;;
10319;SDS011;5205;52.168;5.420;2024-03-23T06:16:00;7.72;;;1.83;;
10319;SDS011;5205;52.168;5.420;2024-03-23T06:18:27;9.27;;;1.90;;
10319;SDS011;5205;52.168;5.420;2024-03-23T06:20:53;3.33;;;1.27;;
10319;SDS011;5205;52.168;5.420;2024-03-23T06:23:22;6.20;;;1.83;;
10319;SDS011;5205;52.168;5.420;2024-03-23T06:25:48;4.68;;;1.85;;
10319;SDS011;5205;52.168;5.420;2024-03-23T06:30:41;9.02;;;1.88;;
10319;SDS011;5205;52.168;5.420;2024-03-23T06:33:09;8.50;;;1.85;;
10319;SDS011;5205;52.168;5.420;2024-03-23T06:35:35;6.97;;;1.42;;
10319;SDS011;5205;52.168;5.420;2024-03-23T06:38:03;9.23;;;1.90;;
10319;SDS011;5205;52.168;5.420;2024-03-23T06:40:31;8.40;;;1.83;;
10319;SDS011;5205;52.168;5.420;2024-03-23T06:42:58;9.90;;;2.03;;
10319;SDS011;5205;52.168;5.420;2024-03-23T06:45:24;7.95;;;1.65;;
10319;SDS011;5205;52.168;5.420;2024-03-23T06:50:17;6.00;;;1.33;;
10319;SDS011;5205;52.168;5.420;2024-03-23T06:52:44;14.07;;;2.58;;
10319;SDS011;5205;52.168;5.420;2024-03-23T06:55:11;10.05;;;1.98;;
10319;SDS011;5205;52.168;5.420;2024-03-23T06:57:41;9.68;;;1.80;;
10319;SDS011;5205;52.168;5.420;2024-03-23T07:00:07;8.68;;;1.58;;
10319;SDS011;5205;52.168;5.420;2024-03-23T07:02:35;10.93;;;2.17;;
10319;SDS011;5205;52.168;5.420;2024-03-23T07:05:01;5.57;;;1.50;;
10319;SDS011;5205;52.168;5.420;2024-03-23T07:07:29;7.45;;;1.95;;
10319;SDS011;5205;52.168;5.420;2024-03-23T07:09:55;8.00;;;1.90;;
10319;SDS011;5205;52.168;5.420;2024-03-23T07:12:22;5.80;;;2.15;;
10319;SDS011;5205;52.168;5.420;2024-03-23T07:14:50;8.73;;;2.30;;
10319;SDS011;5205;52.168;5.420;2024-03-23T07:17:17;10.48;;;2.67;;
10319;SDS011;5205;52.168;5.420;2024-03-23T07:19:43;10.93;;;2.38;;
10319;SDS011;5205;52.168;5.420;2024-03-23T07:22:12;12.25;;;2.13;;
10319;SDS011;5205;52.168;5.420;2024-03-23T07:24:39;9.88;;;1.75;;
10319;SDS011;5205;52.168;5.420;2024-03-23T07:27:06;6.90;;;2.10;;
10319;SDS011;5205;52.168;5.420;2024-03-23T07:29:35;6.47;;;1.83;;
10319;SDS011;5205;52.168;5.420;2024-03-23T07:32:04;7.43;;;2.38;;
10319;SDS011;5205;52.168;5.420;2024-03-23T07:34:30;12.57;;;2.33;;
10319;SDS011;5205;52.168;5.420;2024-03-23T07:36:57;8.95;;;2.47;;
10319;SDS011;5205;52.168;5.420;2024-03-23T07:39:24;12.70;;;2.10;;
10319;SDS011;5205;52.168;5.420;2024-03-23T07:41:54;11.68;;;3.00;;
10319;SDS011;5205;52.168;5.420;2024-03-23T07:44:21;11.63;;;2.33;;
10319;SDS011;5205;52.168;5.420;2024-03-23T07:46:48;7.03;;;2.15;;
10319;SDS011;5205;52.168;5.420;2024-03-23T07:49:16;10.05;;;1.98;;
10319;SDS011;5205;52.168;5.420;2024-03-23T07:51:43;8.48;;;2.45;;
10319;SDS011;5205;52.168;5.420;2024-03-23T07:54:09;7.75;;;2.47;;
10319;SDS011;5205;52.168;5.420;2024-03-23T07:56:36;10.57;;;2.40;;
10319;SDS011;5205;52.168;5.420;2024-03-23T07:59:03;5.70;;;1.83;;
10319;SDS011;5205;52.168;5.420;2024-03-23T08:01:30;4.63;;;1.33;;
10319;SDS011;5205;52.168;5.420;2024-03-23T08:03:56;14.77;;;2.25;;
10319;SDS011;5205;52.168;5.420;2024-03-23T08:06:25;12.13;;;2.28;;
10319;SDS011;5205;52.168;5.420;2024-03-23T08:08:52;16.92;;;1.83;;
10319;SDS011;5205;52.168;5.420;2024-03-23T08:11:24;10.00;;;2.03;;
10319;SDS011;5205;52.168;5.420;2024-03-23T08:13:51;7.97;;;1.90;;
10319;SDS011;5205;52.168;5.420;2024-03-23T08:16:18;12.25;;;1.70;;
10319;SDS011;5205;52.168;5.420;2024-03-23T08:18:44;9.57;;;1.92;;
10319;SDS011;5205;52.168;5.420;2024-03-23T08:21:11;6.97;;;1.45;;
10319;SDS011;5205;52.168;5.420;2024-03-23T08:23:40;15.35;;;2.45;;
10319;SDS011;5205;52.168;5.420;2024-03-23T08:26:12;8.35;;;1.60;;
10319;SDS011;5205;52.168;5.420;2024-03-23T08:31:06;10.73;;;1.55;;
10319;SDS011;5205;52.168;5.420;2024-03-23T08:33:33;5.90;;;1.75;;
10319;SDS011;5205;52.168;5.420;2024-03-23T08:36:00;10.35;;;1.52;;
10319;SDS011;5205;52.168;5.420;2024-03-23T08:38:27;12.45;;;1.50;;
10319;SDS011;5205;52.168;5.420;2024-03-23T08:40:58;10.15;;;1.85;;
10319;SDS011;5205;52.168;5.420;2024-03-23T08:43:24;4.63;;;1.67;;
10319;SDS011;5205;52.168;5.420;2024-03-23T08:45:52;7.30;;;1.55;;
10319;SDS011;5205;52.168;5.420;2024-03-23T08:48:18;6.03;;;1.15;;
10319;SDS011;5205;52.168;5.420;2024-03-23T08:50:46;11.93;;;1.80;;
10319;SDS011;5205;52.168;5.420;2024-03-23T08:53:12;8.40;;;2.10;;
10319;SDS011;5205;52.168;5.420;2024-03-23T08:55:39;12.30;;;1.40;;
10319;SDS011;5205;52.168;5.420;2024-03-23T08:58:07;17.02;;;1.98;;
10319;SDS011;5205;52.168;5.420;2024-03-23T09:00:35;8.50;;;1.77;;
10319;SDS011;5205;52.168;5.420;2024-03-23T09:03:01;12.95;;;1.92;;
10319;SDS011;5205;52.168;5.420;2024-03-23T09:05:29;7.97;;;2.53;;
10319;SDS011;5205;52.168;5.420;2024-03-23T09:08:01;10.02;;;1.70;;
10319;SDS011;5205;52.168;5.420;2024-03-23T09:10:28;5.50;;;1.10;;
10319;SDS011;5205;52.168;5.420;2024-03-23T09:12:54;7.65;;;1.55;;
10319;SDS011;5205;52.168;5.420;2024-03-23T09:15:25;3.40;;;1.10;;
10319;SDS011;5205;52.168;5.420;2024-03-23T09:17:52;4.25;;;0.95;;
10319;SDS011;5205;52.168;5.420;2024-03-23T09:20:21;8.38;;;1.00;;
10319;SDS011;5205;52.168;5.420;2024-03-23T09:22:48;6.70;;;2.25;;
10319;SDS011;5205;52.168;5.420;2024-03-23T09:25:15;6.93;;;1.50;;
10319;SDS011;5205;52.168;5.420;2024-03-23T09:27:41;4.45;;;1.30;;
10319;SDS011;5205;52.168;5.420;2024-03-23T09:30:09;9.90;;;1.75;;
10319;SDS011;5205;52.168;5.420;2024-03-23T09:32:37;8.50;;;1.23;;
10319;SDS011;5205;52.168;5.420;2024-03-23T09:35:04;4.40;;;0.95;;
10319;SDS011;5205;52.168;5.420;2024-03-23T09:37:31;10.60;;;1.63;;
10319;SDS011;5205;52.168;5.420;2024-03-23T09:39:58;10.80;;;1.48;;
10319;SDS011;5205;52.168;5.420;2024-03-23T09:42:24;6.65;;;1.58;;
10319;SDS011;5205;52.168;5.420;2024-03-23T09:44:52;7.60;;;1.40;;
10319;SDS011;5205;52.168;5.420;2024-03-23T09:47:18;9.73;;;1.58;;
10319;SDS011;5205;52.168;5.420;2024-03-23T09:49:46;5.55;;;1.20;;
10319;SDS011;5205;52.168;5.420;2024-03-23T09:52:12;7.78;;;1.58;;
10319;SDS011;5205;52.168;5.420;2024-03-23T09:54:40;13.38;;;2.28;;
10319;SDS011;5205;52.168;5.420;2024-03-23T09:57:06;6.43;;;1.40;;
10319;SDS011;5205;52.168;5.420;2024-03-23T09:59:33;10.77;;;1.83;;
10319;SDS011;5205;52.168;5.420;2024-03-23T10:02:00;5.63;;;1.33;;
10319;SDS011;5205;52.168;5.420;2024-03-23T10:04:36;8.70;;;1.48;;
10319;SDS011;5205;52.168;5.420;2024-03-23T10:07:11;5.05;;;1.90;;
10319;SDS011;5205;52.168;5.420;2024-03-23T10:09:39;13.05;;;1.38;;
10319;SDS011;5205;52.168;5.420;2024-03-23T10:12:09;9.63;;;1.33;;
10319;SDS011;5205;52.168;5.420;2024-03-23T10:14:37;5.15;;;1.20;;
10319;SDS011;5205;52.168;5.420;2024-03-23T10:17:13;10.02;;;1.45;;
10319;SDS011;5205;52.168;5.420;2024-03-23T10:19:42;8.75;;;1.55;;
10319;SDS011;5205;52.168;5.420;2024-03-23T10:22:09;6.18;;;1.38;;
10319;SDS011;5205;52.168;5.420;2024-03-23T10:24:38;8.55;;;1.73;;
10319;SDS011;5205;52.168;5.420;2024-03-23T10:27:04;6.60;;;1.10;;
10319;SDS011;5205;52.168;5.420;2024-03-23T10:29:32;6.50;;;1.55;;
10319;SDS011;5205;52.168;5.420;2024-03-23T10:32:07;9.07;;;1.58;;
10319;SDS011;5205;52.168;5.420;2024-03-23T10:34:35;5.32;;;1.17;;
10319;SDS011;5205;52.168;5.420;2024-03-23T10:37:01;3.50;;;1.25;;
10319;SDS011;5205;52.168;5.420;2024-03-23T10:39:30;4.88;;;0.98;;
10319;SDS011;5205;52.168;5.420;2024-03-23T10:41:57;11.98;;;1.40;;
10319;SDS011;5205;52.168;5.420;2024-03-23T10:44:25;4.25;;;1.10;;
10319;SDS011;5205;52.168;5.420;2024-03-23T10:46:54;6.70;;;1.60;;
10319;SDS011;5205;52.168;5.420;2024-03-23T10:49:25;6.82;;;1.05;;
10319;SDS011;5205;52.168;5.420;2024-03-23T10:51:51;5.53;;;1.50;;
10319;SDS011;5205;52.168;5.420;2024-03-23T10:54:19;9.65;;;1.45;;
10319;SDS011;5205;52.168;5.420;2024-03-23T10:59:14;6.95;;;1.63;;
10319;SDS011;5205;52.168;5.420;2024-03-23T11:01:53;4.30;;;1.27;;
10319;SDS011;5205;52.168;5.420;2024-03-23T11:04:30;9.25;;;1.65;;
10319;SDS011;5205;52.168;5.420;2024-03-23T11:06:56;11.00;;;1.58;;
10319;SDS011;5205;52.168;5.420;2024-03-23T11:12:29;5.10;;;1.00;;
10319;SDS011;5205;52.168;5.420;2024-03-23T11:15:01;10.02;;;1.92;;
10319;SDS011;5205;52.168;5.420;2024-03-23T11:17:27;10.10;;;1.38;;
10319;SDS011;5205;52.168;5.420;2024-03-23T11:19:55;8.30;;;1.20;;
10319;SDS011;5205;52.168;5.420;2024-03-23T11:22:41;7.32;;;1.30;;
10319;SDS011;5205;52.168;5.420;2024-03-23T11:25:18;9.40;;;1.40;;
10319;SDS011;5205;52.168;5.420;2024-03-23T11:27:46;6.35;;;1.20;;
10319;SDS011;5205;52.168;5.420;2024-03-23T11:30:15;2.78;;;0.95;;
10319;SDS011;5205;52.168;5.420;2024-03-23T11:32:42;6.10;;;1.23;;
10319;SDS011;5205;52.168;5.420;2024-03-23T11:35:09;8.60;;;1.00;;
10319;SDS011;5205;52.168;5.420;2024-03-23T11:37:36;4.35;;;1.30;;
10319;SDS011;5205;52.168;5.420;2024-03-23T11:40:19;8.65;;;1.90;;
10319;SDS011;5205;52.168;5.420;2024-03-23T11:42:45;11.52;;;1.73;;
10319;SDS011;5205;52.168;5.420;2024-03-23T11:45:14;5.82;;;1.13;;
10319;SDS011;5205;52.168;5.420;2024-03-23T11:47:42;8.38;;;1.33;;
10319;SDS011;5205;52.168;5.420;2024-03-23T11:50:09;7.10;;;1.83;;
10319;SDS011;5205;52.168;5.420;2024-03-23T11:52:36;6.40;;;1.70;;
10319;SDS011;5205;52.168;5.420;2024-03-23T11:55:03;6.05;;;1.33;;
10319;SDS011;5205;52.168;5.420;2024-03-23T11:57:30;4.95;;;1.13;;
10319;SDS011;5205;52.168;5.420;2024-03-23T11:59:57;5.03;;;1.40;;
10319;SDS011;5205;52.168;5.420;2024-03-23T12:02:25;4.75;;;1.48;;
10319;SDS011;5205;52.168;5.420;2024-03-23T12:04:52;5.32;;;1.20;;
10319;SDS011;5205;52.168;5.420;2024-03-23T12:07:19;2.83;;;0.95;;
10319;SDS011;5205;52.168;5.420;2024-03-23T12:09:47;9.55;;;1.35;;
10319;SDS011;5205;52.168;5.420;2024-03-23T12:12:13;5.90;;;1.23;;
10319;SDS011;5205;52.168;5.420;2024-03-23T12:14:41;7.35;;;1.08;;
10319;SDS011;5205;52.168;5.420;2024-03-23T12:17:08;9.30;;;1.30;;
10319;SDS011;5205;52.168;5.420;2024-03-23T12:19:37;9.30;;;2.00;;
10319;SDS011;5205;52.168;5.420;2024-03-23T12:22:03;7.55;;;1.20;;
10319;SDS011;5205;52.168;5.420;2024-03-23T12:24:31;5.95;;;1.50;;
10319;SDS011;5205;52.168;5.420;2024-03-23T12:27:02;5.43;;;2.00;;
10319;SDS011;5205;52.168;5.420;2024-03-23T12:29:29;4.10;;;1.02;;
10319;SDS011;5205;52.168;5.420;2024-03-23T12:31:59;2.55;;;0.90;;
10319;SDS011;5205;52.168;5.420;2024-03-23T12:34:26;5.03;;;1.27;;
10319;SDS011;5205;52.168;5.420;2024-03-23T12:36:53;7.78;;;1.27;;
10319;SDS011;5205;52.168;5.420;2024-03-23T12:39:20;2.85;;;0.90;;
10319;SDS011;5205;52.168;5.420;2024-03-23T12:41:46;5.50;;;1.00;;
10319;SDS011;5205;52.168;5.420;2024-03-23T12:44:14;6.63;;;1.10;;
10319;SDS011;5205;52.168;5.420;2024-03-23T12:46:40;7.85;;;1.30;;
10319;SDS011;5205;52.168;5.420;2024-03-23T12:49:08;4.82;;;1.10;;
10319;SDS011;5205;52.168;5.420;2024-03-23T12:51:34;5.57;;;1.60;;
10319;SDS011;5205;52.168;5.420;2024-03-23T12:54:02;2.75;;;0.93;;
10319;SDS011;5205;52.168;5.420;2024-03-23T12:56:29;11.82;;;1.17;;
10319;SDS011;5205;52.168;5.420;2024-03-23T12:58:56;3.90;;;0.98;;
10319;SDS011;5205;52.168;5.420;2024-03-23T13:01:22;4.65;;;1.10;;
10319;SDS011;5205;52.168;5.420;2024-03-23T13:03:50;6.88;;;1.30;;
10319;SDS011;5205;52.168;5.420;2024-03-23T13:06:16;14.27;;;2.83;;
10319;SDS011;5205;52.168;5.420;2024-03-23T13:08:44;4.90;;;1.15;;
10319;SDS011;5205;52.168;5.420;2024-03-23T13:11:12;6.00;;;1.10;;
10319;SDS011;5205;52.168;5.420;2024-03-23T13:13:40;4.22;;;1.02;;
10319;SDS011;5205;52.168;5.420;2024-03-23T13:16:07;4.07;;;1.38;;
10319;SDS011;5205;52.168;5.420;2024-03-23T13:18:34;7.07;;;1.02;;
10319;SDS011;5205;52.168;5.420;2024-03-23T13:21:00;7.10;;;1.10;;
10319;SDS011;5205;52.168;5.420;2024-03-23T13:23:27;4.07;;;1.63;;
10319;SDS011;5205;52.168;5.420;2024-03-23T13:25:54;6.72;;;1.40;;
10319;SDS011;5205;52.168;5.420;2024-03-23T13:28:23;7.30;;;1.38;;
10319;SDS011;5205;52.168;5.420;2024-03-23T13:30:50;6.82;;;1.48;;
10319;SDS011;5205;52.168;5.420;2024-03-23T13:33:17;3.00;;;0.57;;
10319;SDS011;5205;52.168;5.420;2024-03-23T13:35:50;1.48;;;0.57;;
10319;SDS011;5205;52.168;5.420;2024-03-23T13:38:17;2.50;;;0.50;;
10319;SDS011;5205;52.168;5.420;2024-03-23T13:40:52;2.65;;;0.57;;
10319;SDS011;5205;52.168;5.420;2024-03-23T13:43:19;1.75;;;0.40;;
10319;SDS011;5205;52.168;5.420;2024-03-23T13:45:47;3.40;;;0.63;;
10319;SDS011;5205;52.168;5.420;2024-03-23T13:48:16;1.52;;;0.73;;
10319;SDS011;5205;52.168;5.420;2024-03-23T13:50:43;4.07;;;1.15;;
10319;SDS011;5205;52.168;5.420;2024-03-23T13:53:10;5.72;;;0.80;;
10319;SDS011;5205;52.168;5.420;2024-03-23T13:55:36;3.72;;;0.93;;
10319;SDS011;5205;52.168;5.420;2024-03-23T13:58:03;4.32;;;0.90;;
10319;SDS011;5205;52.168;5.420;2024-03-23T14:00:29;6.40;;;1.08;;
10319;SDS011;5205;52.168;5.420;2024-03-23T14:02:59;6.00;;;1.00;;
10319;SDS011;5205;52.168;5.420;2024-03-23T14:05:25;7.88;;;1.48;;
10319;SDS011;5205;52.168;5.420;2024-03-23T14:07:52;5.07;;;1.20;;
10319;SDS011;5205;52.168;5.420;2024-03-23T14:10:18;4.10;;;0.95;;
10319;SDS011;5205;52.168;5.420;2024-03-23T14:12:45;7.15;;;1.23;;
10319;SDS011;5205;52.168;5.420;2024-03-23T14:15:11;6.78;;;1.42;;
10319;SDS011;5205;52.168;5.420;2024-03-23T14:17:38;8.13;;;1.73;;
10319;SDS011;5205;52.168;5.420;2024-03-23T14:20:07;4.45;;;1.40;;
10319;SDS011;5205;52.168;5.420;2024-03-23T14:22:36;7.65;;;1.13;;
10319;SDS011;5205;52.168;5.420;2024-03-23T14:25:02;4.63;;;1.10;;
10319;SDS011;5205;52.168;5.420;2024-03-23T14:27:29;9.77;;;1.45;;
10319;SDS011;5205;52.168;5.420;2024-03-23T14:29:55;7.35;;;1.58;;
10319;SDS011;5205;52.168;5.420;2024-03-23T14:32:22;5.80;;;1.50;;
10319;SDS011;5205;52.168;5.420;2024-03-23T14:34:49;4.97;;;1.20;;
10319;SDS011;5205;52.168;5.420;2024-03-23T14:37:18;8.43;;;1.38;;
10319;SDS011;5205;52.168;5.420;2024-03-23T14:39:44;9.48;;;1.30;;
10319;SDS011;5205;52.168;5.420;2024-03-23T14:42:11;4.20;;;0.77;;
10319;SDS011;5205;52.168;5.420;2024-03-23T14:44:38;5.38;;;1.20;;
10319;SDS011;5205;52.168;5.420;2024-03-23T14:47:05;7.47;;;1.08;;
10319;SDS011;5205;52.168;5.420;2024-03-23T14:49:31;7.07;;;1.45;;
10319;SDS011;5205;52.168;5.420;2024-03-23T14:51:58;4.85;;;0.98;;
10319;SDS011;5205;52.168;5.420;2024-03-23T14:54:26;6.47;;;1.35;;
10319;SDS011;5205;52.168;5.420;2024-03-23T14:56:53;4.32;;;0.93;;
10319;SDS011;5205;52.168;5.420;2024-03-23T14:59:19;10.25;;;1.23;;
10319;SDS011;5205;52.168;5.420;2024-03-23T15:01:46;4.70;;;1.20;;
10319;SDS011;5205;52.168;5.420;2024-03-23T15:04:12;5.63;;;1.20;;
10319;SDS011;5205;52.168;5.420;2024-03-23T15:06:40;3.22;;;0.80;;
10319;SDS011;5205;52.168;5.420;2024-03-23T15:09:07;8.45;;;1.33;;
10319;SDS011;5205;52.168;5.420;2024-03-23T15:11:38;7.47;;;1.40;;
10319;SDS011;5205;52.168;5.420;2024-03-23T15:14:04;6.63;;;1.65;;
10319;SDS011;5205;52.168;5.420;2024-03-23T15:16:34;8.77;;;1.27;;
10319;SDS011;5205;52.168;5.420;2024-03-23T15:19:00;7.05;;;0.90;;
10319;SDS011;5205;52.168;5.420;2024-03-23T15:21:27;4.82;;;1.08;;
10319;SDS011;5205;52.168;5.420;2024-03-23T15:23:53;5.47;;;1.10;;
10319;SDS011;5205;52.168;5.420;2024-03-23T15:26:20;4.55;;;1.10;;
10319;SDS011;5205;52.168;5.420;2024-03-23T15:28:49;3.50;;;0.98;;
10319;SDS011;5205;52.168;5.420;2024-03-23T15:31:35;3.60;;;0.98;;
10319;SDS011;5205;52.168;5.420;2024-03-23T15:34:02;6.97;;;1.30;;
10319;SDS011;5205;52.168;5.420;2024-03-23T15:36:30;7.85;;;1.50;;
10319;SDS011;5205;52.168;5.420;2024-03-23T15:38:56;4.53;;;0.93;;
10319;SDS011;5205;52.168;5.420;2024-03-23T15:41:23;3.15;;;0.90;;
10319;SDS011;5205;52.168;5.420;2024-03-23T15:43:51;2.88;;;0.88;;
10319;SDS011;5205;52.168;5.420;2024-03-23T15:46:19;3.13;;;0.82;;
10319;SDS011;5205;52.168;5.420;2024-03-23T15:48:45;4.47;;;0.98;;
10319;SDS011;5205;52.168;5.420;2024-03-23T15:51:13;1.90;;;0.80;;
10319;SDS011;5205;52.168;5.420;2024-03-23T15:53:40;8.35;;;1.27;;
10319;SDS011;5205;52.168;5.420;2024-03-23T15:56:08;4.13;;;1.27;;
10319;SDS011;5205;52.168;5.420;2024-03-23T15:58:35;6.05;;;1.52;;
10319;SDS011;5205;52.168;5.420;2024-03-23T16:01:05;6.72;;;1.27;;
10319;SDS011;5205;52.168;5.420;2024-03-23T16:03:34;5.65;;;1.50;;
10319;SDS011;5205;52.168;5.420;2024-03-23T16:06:01;10.23;;;1.85;;
10319;SDS011;5205;52.168;5.420;2024-03-23T16:08:28;16.30;;;2.30;;
10319;SDS011;5205;52.168;5.420;2024-03-23T16:10:59;4.80;;;1.50;;
10319;SDS011;5205;52.168;5.420;2024-03-23T16:13:25;8.88;;;1.52;;